Time;durP1;ratioP1;P1;durP2;ratioP2;P2;SDS_P1;SDS_P2;PMS_P1;PMS_P2;Temp;Humidity;BMP_temperature;BMP_pressure;BME280_temperature;BME280_humidity;BME280_pressure;Samples;Min_cycle;Max_cycle;Signal;HPM_P1;HPM_P2
2024/02/22 00:04:14;;;;;;;0.68;0.68;;;10.40;99.90;;;;;;10570433;27;20059;-60
2024/02/22 00:09:16;;;;;;;101.18;10.32;;;10.20;99.90;;;;;;10568220;27;20529;-57
2024/02/22 00:14:20;;;;;;;97.23;10.27;;;10.20;99.90;;;;;;10567832;27;20051;-60
2024/02/22 00:19:22;;;;;;;84.70;10.13;;;10.20;99.90;;;;;;10567125;28;20539;-59
2024/02/22 00:24:32;;;;;;;92.27;11.83;;;10.30;99.90;;;;;;10567194;27;20418;-58
2024/02/22 00:29:45;;;;;;;96.93;12.80;;;10.20;99.90;;;;;;10565015;27;20147;-57
2024/02/22 00:34:47;;;;;;;138.13;16.52;;;10.10;99.90;;;;;;10568224;27;20059;-59
2024/02/22 00:39:49;;;;;;;125.97;18.13;;;10.20;99.90;;;;;;10570378;27;20059;-59
2024/02/22 00:44:53;;;;;;;98.32;14.25;;;10.10;99.90;;;;;;10576300;27;20124;-58
2024/02/22 00:49:55;;;;;;;87.65;13.10;;;10.20;99.90;;;;;;10577367;27;20051;-59
2024/02/22 00:54:57;;;;;;;125.75;17.85;;;10.00;99.90;;;;;;10570246;27;20059;-60
2024/02/22 01:00:00;;;;;;;144.87;16.77;;;10.10;99.90;;;;;;10570088;27;20063;-58
2024/02/22 01:05:04;;;;;;;142.07;17.35;;;10.00;99.90;;;;;;10568830;27;20719;-59
2024/02/22 01:10:08;;;;;;;138.18;16.33;;;10.10;99.90;;;;;;10566949;27;20062;-59
2024/02/22 01:15:12;;;;;;;128.32;18.10;;;10.10;99.90;;;;;;10571788;27;20499;-60
2024/02/22 01:20:14;;;;;;;137.48;16.48;;;10.10;99.90;;;;;;10570363;27;20119;-59
2024/02/22 01:25:16;;;;;;;115.33;14.90;;;9.90;99.90;;;;;;10563166;27;20791;-59
2024/02/22 01:30:20;;;;;;;144.40;21.52;;;9.90;99.90;;;;;;10572079;27;20058;-59
2024/02/22 01:35:22;;;;;;;163.52;20.80;;;10.00;99.90;;;;;;10573851;27;20178;-59
2024/02/22 01:40:24;;;;;;;145.43;15.47;;;10.00;99.90;;;;;;10572895;27;20094;-58
2024/02/22 01:45:28;;;;;;;153.13;18.33;;;10.10;99.90;;;;;;10574675;27;20855;-58
2024/02/22 01:50:30;;;;;;;156.27;18.88;;;9.90;99.90;;;;;;10569859;27;20048;-59
2024/02/22 01:55:33;;;;;;;148.47;14.37;;;9.90;99.90;;;;;;10565982;27;22603;-60
2024/02/22 02:00:36;;;;;;;129.40;13.90;;;9.90;99.90;;;;;;10565839;27;20142;-59
2024/02/22 02:05:38;;;;;;;140.20;17.98;;;9.90;99.90;;;;;;10567423;27;20051;-57
2024/02/22 02:10:40;;;;;;;119.03;13.45;;;9.80;99.90;;;;;;10573280;27;20057;-58
2024/02/22 02:15:44;;;;;;;115.60;14.77;;;9.90;99.90;;;;;;10569448;27;20043;-57
2024/02/22 02:20:51;;;;;;;125.03;15.20;;;10.00;99.90;;;;;;10569331;27;20048;-58
2024/02/22 02:25:55;;;;;;;119.00;13.05;;;9.90;99.90;;;;;;10572323;27;20099;-60
2024/02/22 02:30:57;;;;;;;150.90;17.73;;;10.10;99.90;;;;;;10571037;27;20141;-59
2024/02/22 02:35:59;;;;;;;143.10;15.02;;;9.80;99.90;;;;;;10568439;27;20043;-59
2024/02/22 02:41:02;;;;;;;131.07;11.40;;;9.90;99.90;;;;;;10564097;27;20392;-60
2024/02/22 02:46:05;;;;;;;146.88;14.60;;;10.00;99.90;;;;;;10571833;27;20051;-60
2024/02/22 02:51:07;;;;;;;104.63;14.23;;;9.90;99.90;;;;;;10577709;27;20047;-60
2024/02/22 02:56:11;;;;;;;104.67;11.10;;;9.90;99.90;;;;;;10568276;27;20077;-60
2024/02/22 03:01:13;;;;;;;101.43;11.30;;;10.00;99.90;;;;;;10574663;27;20615;-60
2024/02/22 03:06:15;;;;;;;142.23;14.60;;;10.10;99.90;;;;;;10572289;27;20576;-59
2024/02/22 03:11:18;;;;;;;135.23;13.70;;;10.00;99.90;;;;;;10570320;27;20077;-61
2024/02/22 03:16:20;;;;;;;98.25;9.75;;;9.90;99.90;;;;;;10567564;27;20058;-58
2024/02/22 03:21:23;;;;;;;114.72;13.27;;;9.90;99.90;;;;;;10568265;27;20113;-59
2024/02/22 03:26:26;;;;;;;115.57;10.95;;;9.80;99.90;;;;;;10571934;27;20051;-59
2024/02/22 03:31:28;;;;;;;105.82;11.00;;;9.70;99.90;;;;;;10568754;27;20648;-60
2024/02/22 03:36:30;;;;;;;72.57;7.90;;;9.80;99.90;;;;;;10569301;27;20052;-60
2024/02/22 03:41:34;;;;;;;76.23;8.13;;;9.80;99.90;;;;;;10567612;27;20058;-60
2024/02/22 03:46:37;;;;;;;100.65;12.65;;;9.70;99.90;;;;;;10561982;27;20050;-59
2024/02/22 03:51:39;;;;;;;88.40;10.80;;;9.80;99.90;;;;;;10563203;27;20087;-60
2024/02/22 03:56:42;;;;;;;96.57;10.50;;;9.70;99.90;;;;;;10561252;27;20591;-57
2024/02/22 04:15:32;;;;;;;84.60;10.02;;;9.40;99.90;;;;;;10545688;27;20132;-60
2024/02/22 04:20:34;;;;;;;107.57;10.45;;;9.30;99.90;;;;;;10563085;28;20059;-59
2024/02/22 04:25:36;;;;;;;88.13;10.27;;;9.40;99.90;;;;;;10565846;28;20233;-60
2024/02/22 04:30:40;;;;;;;95.65;9.57;;;9.40;99.90;;;;;;10557724;28;20066;-59
2024/02/22 04:35:44;;;;;;;79.43;9.35;;;9.30;99.90;;;;;;10560838;27;20085;-59
2024/02/22 04:40:46;;;;;;;79.63;9.93;;;9.30;99.90;;;;;;10554673;28;20139;-60
2024/02/22 04:45:50;;;;;;;107.53;13.70;;;9.30;99.90;;;;;;10561376;28;20143;-59
2024/02/22 04:50:52;;;;;;;130.02;14.10;;;9.40;99.90;;;;;;10560355;28;20063;-57
2024/02/22 04:55:54;;;;;;;123.72;12.10;;;9.60;99.90;;;;;;10556027;28;20063;-59
2024/02/22 05:00:57;;;;;;;99.22;12.52;;;9.40;99.90;;;;;;10555470;28;20617;-60
2024/02/22 05:05:59;;;;;;;91.20;12.18;;;9.60;99.90;;;;;;10556569;28;20047;-58
2024/02/22 05:11:01;;;;;;;83.00;10.50;;;9.50;99.90;;;;;;10556850;28;20872;-60
2024/02/22 05:16:06;;;;;;;74.47;8.50;;;9.60;99.90;;;;;;10550913;28;20074;-59
2024/02/22 05:21:08;;;;;;;84.07;9.00;;;9.70;99.90;;;;;;10556429;28;20227;-60
2024/02/22 05:26:10;;;;;;;52.73;5.40;;;9.80;99.90;;;;;;10538367;28;20047;-60
2024/02/22 05:31:23;;;;;;;59.85;7.10;;;10.20;99.90;;;;;;10532077;28;20062;-59
2024/02/22 05:36:25;;;;;;;96.30;10.83;;;10.20;99.90;;;;;;10533426;28;20083;-60
2024/02/22 05:41:27;;;;;;;68.70;7.97;;;10.00;99.90;;;;;;10529940;28;20477;-58
2024/02/22 05:46:30;;;;;;;71.20;9.40;;;9.90;99.90;;;;;;10526507;28;20047;-59
2024/02/22 05:51:32;;;;;;;59.20;7.85;;;10.10;99.90;;;;;;10523058;28;20047;-60
2024/02/22 05:56:34;;;;;;;73.25;9.93;;;10.20;99.90;;;;;;10528898;28;20058;-60
2024/02/22 06:01:38;;;;;;;53.13;7.53;;;10.10;99.90;;;;;;10523056;28;20055;-60
2024/02/22 06:06:39;;;;;;;55.88;7.60;;;10.30;99.90;;;;;;10511670;28;20129;-59
2024/02/22 06:11:41;;;;;;;82.10;9.63;;;10.20;99.90;;;;;;10529243;28;20084;-59
2024/02/22 06:16:45;;;;;;;58.78;7.57;;;10.00;99.90;;;;;;10526941;28;20056;-58
2024/02/22 06:21:47;;;;;;;83.55;8.80;;;9.80;99.90;;;;;;10529779;28;20138;-59
2024/02/22 06:26:49;;;;;;;42.75;5.60;;;10.10;99.90;;;;;;10515336;28;20055;-60
2024/02/22 06:31:53;;;;;;;52.20;7.77;;;10.40;99.90;;;;;;10513899;28;20051;-60
2024/02/22 06:36:55;;;;;;;44.85;8.48;;;10.40;99.90;;;;;;10514161;28;20134;-59
2024/02/22 06:41:57;;;;;;;46.20;8.10;;;10.70;99.90;;;;;;10527391;28;20103;-60
2024/02/22 06:47:00;;;;;;;42.67;7.65;;;10.50;99.90;;;;;;10519414;28;20985;-61
2024/02/22 06:52:02;;;;;;;45.85;9.25;;;10.50;99.90;;;;;;10527578;28;20043;-58
2024/02/22 06:57:05;;;;;;;46.03;9.52;;;10.30;99.90;;;;;;10520990;28;20052;-58
2024/02/22 07:02:09;;;;;;;45.05;9.68;;;10.30;99.90;;;;;;10513779;28;20127;-58
2024/02/22 07:07:11;;;;;;;30.83;8.85;;;10.30;99.90;;;;;;10514058;28;20086;-60
2024/02/22 07:12:13;;;;;;;31.73;7.15;;;11.20;99.90;;;;;;10512988;28;20075;-59
2024/02/22 07:17:16;;;;;;;32.17;6.47;;;11.50;99.90;;;;;;10516630;28;20079;-60
2024/02/22 07:22:18;;;;;;;19.90;4.07;;;11.70;99.90;;;;;;10514722;27;20523;-60
2024/02/22 07:27:20;;;;;;;19.87;3.80;;;11.20;99.90;;;;;;10512899;28;20105;-60
2024/02/22 07:32:24;;;;;;;30.20;4.93;;;11.50;99.90;;;;;;10507954;28;20064;-60
2024/02/22 07:37:26;;;;;;;13.73;3.42;;;12.10;99.90;;;;;;10517159;28;20952;-60
2024/02/22 07:42:32;;;;;;;11.67;3.40;;;13.00;99.90;;;;;;10516767;27;20043;-58
2024/02/22 07:47:35;;;;;;;12.65;3.47;;;13.70;99.90;;;;;;10519618;28;20063;-60
2024/02/22 07:52:38;;;;;;;7.30;2.67;;;14.20;99.90;;;;;;10515440;28;20125;-60
2024/02/22 07:57:40;;;;;;;6.28;3.00;;;14.00;99.90;;;;;;10514224;28;20071;-60
2024/02/22 08:02:44;;;;;;;10.73;2.67;;;14.30;99.90;;;;;;10510289;28;20054;-60
2024/02/22 08:07:46;;;;;;;10.30;3.20;;;15.00;99.90;;;;;;10515661;28;20128;-60
2024/02/22 08:12:48;;;;;;;7.47;2.70;;;15.30;99.90;;;;;;10513930;28;20052;-60
2024/02/22 08:17:52;;;;;;;11.00;3.27;;;15.70;99.90;;;;;;10514072;28;20101;-60
2024/02/22 08:22:54;;;;;;;9.90;2.75;;;15.60;99.90;;;;;;10514749;28;20752;-60
2024/02/22 08:27:56;;;;;;;9.17;3.20;;;16.00;99.90;;;;;;10507721;28;20063;-60
2024/02/22 08:32:59;;;;;;;8.33;2.43;;;15.90;99.90;;;;;;10515094;28;20846;-62
2024/02/22 08:38:01;;;;;;;10.32;2.55;;;15.80;99.90;;;;;;10512503;28;20177;-60
2024/02/22 08:43:03;;;;;;;9.83;2.80;;;16.20;99.90;;;;;;10512780;28;20052;-59
2024/02/22 08:48:08;;;;;;;10.18;2.90;;;15.70;99.90;;;;;;10516433;28;20047;-60
2024/02/22 08:53:10;;;;;;;7.97;4.00;;;15.90;99.90;;;;;;10511064;28;20085;-59
2024/02/22 08:58:14;;;;;;;7.97;3.30;;;16.00;99.90;;;;;;10511521;28;20130;-59
2024/02/22 09:03:17;;;;;;;8.00;3.47;;;16.20;99.90;;;;;;10518081;28;20216;-59
2024/02/22 09:08:20;;;;;;;8.43;3.20;;;15.90;99.90;;;;;;10518429;28;20077;-62
2024/02/22 09:13:22;;;;;;;;;;;16.30;99.90;;;;;;10516570;28;20138;-60
2024/02/22 09:18:28;;;;;;;11.57;3.15;;;16.10;99.90;;;;;;10519246;28;19920;-61
2024/02/22 09:23:30;;;;;;;9.73;4.05;;;16.20;99.90;;;;;;10514941;28;20059;-58
2024/02/22 09:28:32;;;;;;;7.50;3.33;;;16.60;99.90;;;;;;10519477;28;20052;-61
2024/02/22 09:33:36;;;;;;;6.47;2.13;;;16.70;99.90;;;;;;10516817;28;20063;-62
2024/02/22 09:38:38;;;;;;;4.80;1.73;;;16.60;99.90;;;;;;10520279;28;20063;-59
2024/02/22 09:43:41;;;;;;;3.78;1.83;;;16.70;99.90;;;;;;10522833;28;20051;-58
2024/02/22 09:48:44;;;;;;;2.25;1.38;;;16.30;99.90;;;;;;10523221;28;20131;-58
2024/02/22 09:53:47;;;;;;;2.13;0.80;;;16.50;99.90;;;;;;10520859;28;20039;-59
2024/02/22 09:58:49;;;;;;;2.00;1.10;;;16.60;99.90;;;;;;10515234;28;20048;-58
2024/02/22 10:03:52;;;;;;;3.33;1.58;;;16.70;99.90;;;;;;10518630;28;20115;-59
2024/02/22 10:08:58;;;;;;;1.73;1.52;;;16.70;99.90;;;;;;10527399;28;20739;-57
2024/02/22 10:14:01;;;;;;;5.25;2.45;;;16.40;99.90;;;;;;10519551;28;20088;-58
2024/02/22 10:19:05;;;;;;;3.75;2.08;;;16.80;99.90;;;;;;10522798;28;22500;-59
2024/02/22 10:24:08;;;;;;;5.00;2.63;;;17.10;99.90;;;;;;10521172;28;20052;-59
2024/02/22 10:29:13;;;;;;;6.78;3.08;;;17.00;99.90;;;;;;10523236;28;20051;-57
2024/02/22 10:34:16;;;;;;;3.55;2.53;;;16.80;99.90;;;;;;10514779;28;20051;-61
2024/02/22 10:39:23;;;;;;;5.97;3.17;;;17.00;99.90;;;;;;10519302;28;20757;-57
2024/02/22 10:44:25;;;;;;;7.72;3.22;;;17.00;99.90;;;;;;10512995;28;20047;-58
2024/02/22 10:49:31;;;;;;;7.05;4.20;;;16.90;99.90;;;;;;10517694;28;20056;-57
2024/02/22 10:54:35;;;;;;;5.78;4.63;;;17.10;99.90;;;;;;10517804;28;20051;-56
2024/02/22 10:59:39;;;;;;;6.40;3.78;;;16.80;99.90;;;;;;10519703;28;20056;-56
2024/02/22 11:04:43;;;;;;;4.20;3.22;;;17.30;99.90;;;;;;10517761;28;20075;-57
2024/02/22 11:09:49;;;;;;;4.68;2.95;;;17.30;99.90;;;;;;10518923;28;20112;-62
2024/02/22 11:14:51;;;;;;;5.47;3.55;;;17.40;99.90;;;;;;10512512;28;20062;-61
2024/02/22 11:20:06;;;;;;;4.53;3.17;;;17.70;99.90;;;;;;10518033;28;20051;-61
2024/02/22 11:25:09;;;;;;;9.45;3.40;;;18.10;99.90;;;;;;10507110;28;20865;-61
2024/02/22 11:30:13;;;;;;;5.95;2.75;;;18.30;99.90;;;;;;10524225;28;20513;-59
2024/02/22 11:35:17;;;;;;;4.20;2.50;;;18.30;99.90;;;;;;10510769;28;20835;-57
2024/02/22 11:40:20;;;;;;;5.22;2.78;;;18.50;99.90;;;;;;10515412;28;20064;-58
2024/02/22 11:45:22;;;;;;;3.58;2.20;;;18.00;99.90;;;;;;10514990;28;20370;-57
2024/02/22 11:50:27;;;;;;;4.82;2.40;;;17.90;99.90;;;;;;10516299;28;20055;-56
2024/02/22 11:55:32;;;;;;;4.20;3.25;;;17.80;99.90;;;;;;10516085;28;20152;-57
2024/02/22 12:00:34;;;;;;;5.90;3.42;;;17.60;99.90;;;;;;10511319;28;20110;-56
2024/02/22 12:05:38;;;;;;;3.42;2.83;;;17.50;99.90;;;;;;10509552;28;20063;-54
2024/02/22 12:10:40;;;;;;;2.33;2.10;;;17.60;99.90;;;;;;10505147;28;20163;-54
2024/02/22 12:15:42;;;;;;;3.83;2.60;;;17.70;99.90;;;;;;10500652;28;20059;-51
2024/02/22 12:20:45;;;;;;;4.05;2.80;;;17.60;99.90;;;;;;10518916;28;20484;-55
2024/02/22 12:25:51;;;;;;;3.00;2.40;;;17.80;99.90;;;;;;10516712;28;20047;-53
2024/02/22 12:30:53;;;;;;;8.95;2.63;;;17.70;99.90;;;;;;10524400;28;20067;-58
2024/02/22 12:35:57;;;;;;;2.97;2.03;;;17.50;99.90;;;;;;10514583;28;20076;-52
2024/02/22 12:41:02;;;;;;;5.03;3.40;;;17.90;99.90;;;;;;10526340;28;20433;-57
2024/02/22 12:46:05;;;;;;;3.67;3.35;;;17.50;99.90;;;;;;10526091;28;20067;-56
2024/02/22 12:51:09;;;;;;;3.35;3.05;;;17.40;99.90;;;;;;10518299;28;23077;-55
2024/02/22 12:56:12;;;;;;;5.75;3.80;;;17.60;99.90;;;;;;10519872;28;20676;-51
2024/02/22 13:01:14;;;;;;;4.38;3.97;;;17.60;99.90;;;;;;10520280;28;20047;-56
2024/02/22 13:06:18;;;;;;;3.70;3.15;;;17.10;99.90;;;;;;10510339;28;20044;-56
2024/02/22 13:11:20;;;;;;;3.65;2.55;;;17.60;99.90;;;;;;10516586;28;20058;-58
2024/02/22 13:16:27;;;;;;;3.88;2.85;;;17.70;99.90;;;;;;10517122;28;20841;-60
2024/02/22 13:21:30;;;;;;;3.35;3.05;;;17.70;99.90;;;;;;10517182;28;20063;-58
2024/02/22 13:26:32;;;;;;;2.88;2.55;;;17.50;99.90;;;;;;10518950;28;20043;-56
2024/02/22 13:31:35;;;;;;;2.45;2.00;;;17.70;99.90;;;;;;10520093;28;20052;-56
2024/02/22 13:36:38;;;;;;;4.05;2.00;;;17.80;99.90;;;;;;10517097;28;20126;-56
2024/02/22 13:41:40;;;;;;;1.42;1.23;;;17.60;99.90;;;;;;10517520;28;20429;-58
2024/02/22 13:46:44;;;;;;;1.93;1.73;;;17.60;99.90;;;;;;10503056;28;20044;-60
2024/02/22 13:51:47;;;;;;;2.88;1.10;;;17.90;99.90;;;;;;10511840;28;20600;-55
2024/02/22 13:56:49;;;;;;;1.90;1.30;;;18.10;99.90;;;;;;10512662;28;20047;-56
2024/02/22 14:01:51;;;;;;;1.50;1.33;;;18.00;99.90;;;;;;10512898;28;20085;-57
2024/02/22 14:06:55;;;;;;;1.52;1.02;;;18.10;99.90;;;;;;10512516;28;20048;-56
2024/02/22 14:11:57;;;;;;;1.08;0.77;;;17.90;99.90;;;;;;10514863;28;20426;-57
2024/02/22 14:17:01;;;;;;;0.85;0.80;;;18.00;99.90;;;;;;10521251;28;20048;-56
2024/02/22 14:22:05;;;;;;;2.80;0.80;;;18.20;99.90;;;;;;10522254;28;20048;-55
2024/02/22 14:27:07;;;;;;;2.15;1.42;;;18.30;99.90;;;;;;10512521;28;20052;-59
2024/02/22 14:32:11;;;;;;;1.60;1.35;;;18.40;99.90;;;;;;10511040;28;20174;-59
2024/02/22 14:37:14;;;;;;;1.33;1.02;;;18.30;99.90;;;;;;10511625;28;20093;-58
2024/02/22 14:42:18;;;;;;;1.52;0.90;;;18.60;99.90;;;;;;10511280;28;20851;-58
2024/02/22 14:47:20;;;;;;;0.82;0.82;;;18.60;99.90;;;;;;10513526;28;20100;-58
2024/02/22 14:52:24;;;;;;;1.00;0.68;;;18.20;99.90;;;;;;10511362;28;20778;-58
2024/02/22 14:57:26;;;;;;;0.88;0.60;;;18.60;99.90;;;;;;10508607;28;20173;-59
2024/02/22 15:02:28;;;;;;;1.23;0.75;;;18.40;99.90;;;;;;10516065;28;20050;-56
2024/02/22 15:07:32;;;;;;;2.20;0.50;;;18.20;99.90;;;;;;10507049;28;20112;-58
2024/02/22 15:12:34;;;;;;;1.08;0.65;;;18.50;99.90;;;;;;10515841;28;20204;-55
2024/02/22 15:17:36;;;;;;;0.40;0.40;;;18.50;99.90;;;;;;10510537;28;20428;-58
2024/02/22 15:22:39;;;;;;;1.42;0.38;;;18.50;99.90;;;;;;10515215;28;20828;-57
2024/02/22 15:27:42;;;;;;;1.63;0.68;;;18.50;99.90;;;;;;10506635;28;20058;-58
2024/02/22 15:32:44;;;;;;;0.38;0.30;;;18.30;99.90;;;;;;10512290;28;20043;-58
2024/02/22 15:37:48;;;;;;;0.98;0.57;;;18.70;99.90;;;;;;10500604;28;20047;-58
2024/02/22 15:42:50;;;;;;;0.40;0.40;;;18.70;99.90;;;;;;10507264;28;20047;-57
2024/02/22 15:47:52;;;;;;;2.63;0.40;;;18.40;99.90;;;;;;10504428;28;20084;-58
2024/02/22 15:52:57;;;;;;;0.40;0.40;;;18.70;99.90;;;;;;10501689;28;20522;-57
2024/02/22 15:58:01;;;;;;;0.73;0.35;;;18.70;99.90;;;;;;10508686;28;20076;-60
2024/02/22 16:03:03;;;;;;;0.35;0.20;;;18.30;99.90;;;;;;10505322;28;20046;-58
2024/02/22 16:08:07;;;;;;;1.75;0.60;;;18.60;99.90;;;;;;10500842;28;20052;-58
2024/02/22 16:13:10;;;;;;;0.88;0.30;;;18.40;99.90;;;;;;10501104;28;20055;-59
2024/02/22 16:18:14;;;;;;;0.50;0.30;;;18.50;99.90;;;;;;10502844;28;20056;-59
2024/02/22 16:23:17;;;;;;;0.90;0.68;;;18.30;99.90;;;;;;10500858;28;20934;-59
2024/02/22 16:28:20;;;;;;;1.02;0.35;;;18.50;99.90;;;;;;10508419;28;20094;-57
2024/02/22 16:33:24;;;;;;;3.55;0.70;;;18.80;99.90;;;;;;10510613;28;20048;-58
2024/02/22 16:38:27;;;;;;;2.22;0.65;;;18.30;99.90;;;;;;10508635;28;20058;-57
2024/02/22 16:43:31;;;;;;;3.78;1.00;;;18.50;99.90;;;;;;10516970;28;20852;-57
2024/02/22 16:48:33;;;;;;;1.38;0.80;;;17.30;99.90;;;;;;10520969;28;20079;-58
2024/02/22 16:53:38;;;;;;;0.00;0.00;;;17.30;99.90;;;;;;10514625;28;20489;-56
2024/02/22 16:58:40;;;;;;;0.10;0.10;;;13.00;99.90;;;;;;10512959;28;20066;-56
2024/02/22 17:03:42;;;;;;;0.08;0.08;;;11.50;99.90;;;;;;10517586;28;20454;-55
2024/02/22 17:08:45;;;;;;;0.10;0.10;;;10.70;99.90;;;;;;10503679;28;20903;-57
2024/02/22 17:13:48;;;;;;;0.20;0.20;;;10.50;99.90;;;;;;10502083;28;20056;-57
2024/02/22 17:18:50;;;;;;;0.63;0.63;;;10.40;99.90;;;;;;10516963;28;20054;-59
2024/02/22 17:23:53;;;;;;;0.53;0.53;;;10.00;99.90;;;;;;10508448;28;20040;-56
2024/02/22 17:28:55;;;;;;;0.10;0.10;;;10.00;99.90;;;;;;10516509;28;20055;-59
2024/02/22 17:33:57;;;;;;;0.20;0.20;;;10.00;99.90;;;;;;10517250;28;20067;-55
2024/02/22 17:39:01;;;;;;;0.10;0.10;;;9.80;99.90;;;;;;10519721;28;20055;-56
2024/02/22 17:44:03;;;;;;;0.10;0.10;;;9.90;99.90;;;;;;10525225;28;20055;-56
2024/02/22 17:49:05;;;;;;;34.92;4.85;;;9.60;99.90;;;;;;10519770;28;20047;-59
2024/02/22 17:54:10;;;;;;;28.87;3.93;;;10.00;99.90;;;;;;10513071;28;20043;-56
2024/02/22 17:59:12;;;;;;;26.83;3.65;;;10.10;99.90;;;;;;10519573;28;20173;-57
2024/02/22 18:04:14;;;;;;;16.95;2.67;;;9.90;99.90;;;;;;10518187;28;20040;-56
2024/02/22 18:09:19;;;;;;;14.70;2.10;;;10.00;99.90;;;;;;10515140;28;20083;-58
2024/02/22 18:14:21;;;;;;;0.10;0.10;;;10.30;99.90;;;;;;10517367;28;20048;-57
2024/02/22 18:19:24;;;;;;;0.10;0.10;;;10.00;99.90;;;;;;10512442;28;20233;-57
2024/02/22 18:24:27;;;;;;;0.20;0.20;;;9.60;99.90;;;;;;10510882;28;20044;-59
2024/02/22 18:29:30;;;;;;;0.10;0.10;;;9.10;99.90;;;;;;10510221;28;20503;-60
2024/02/22 18:34:32;;;;;;;0.80;0.80;;;9.00;99.90;;;;;;10514663;28;20043;-56
2024/02/22 18:39:36;;;;;;;0.13;0.13;;;9.00;99.90;;;;;;10504348;28;20084;-58
2024/02/22 18:44:39;;;;;;;10.77;2.33;;;9.10;99.90;;;;;;10511237;28;20052;-56
2024/02/22 18:49:41;;;;;;;16.15;2.05;;;8.80;99.90;;;;;;10513584;28;20090;-57
2024/02/22 18:54:46;;;;;;;14.73;2.27;;;8.70;99.90;;;;;;10505736;28;20482;-56
2024/02/22 18:59:48;;;;;;;40.47;4.55;;;8.70;99.90;;;;;;10507817;28;20063;-57
2024/02/22 19:04:50;;;;;;;29.42;3.78;;;8.20;99.90;;;;;;10512000;28;20146;-60
2024/02/22 19:09:53;;;;;;;21.92;3.85;;;8.10;99.90;;;;;;10506818;28;20540;-61
2024/02/22 19:14:55;;;;;;;26.33;3.75;;;7.60;99.90;;;;;;10511900;28;20052;-59
2024/02/22 19:19:58;;;;;;;20.20;3.33;;;7.70;99.90;;;;;;10519134;28;20052;-60
2024/02/22 19:25:03;;;;;;;0.20;0.20;;;7.30;99.90;;;;;;10506412;28;20116;-60
2024/02/22 19:30:06;;;;;;;0.20;0.20;;;7.20;99.90;;;;;;10510981;28;21022;-61
2024/02/22 19:35:09;;;;;;;;;;;7.10;99.90;;;;;;10509200;28;20057;-59
2024/02/22 19:40:14;;;;;;;0.20;0.20;;;7.10;99.90;;;;;;10510088;28;19923;-60
2024/02/22 19:45:16;;;;;;;0.28;0.25;;;7.00;99.90;;;;;;10510216;28;20044;-59
2024/02/22 19:50:19;;;;;;;5.80;1.30;;;6.90;99.90;;;;;;10502797;28;20106;-60
2024/02/22 19:55:22;;;;;;;0.20;0.20;;;6.50;99.90;;;;;;10501603;28;20036;-60
2024/02/22 20:00:26;;;;;;;0.63;0.63;;;6.50;99.90;;;;;;10509203;28;20040;-58
2024/02/22 20:05:28;;;;;;;0.10;0.10;;;6.70;99.90;;;;;;10507494;28;20048;-61
2024/02/22 20:10:32;;;;;;;0.20;0.20;;;6.60;99.90;;;;;;10502306;28;20051;-59
2024/02/22 20:15:34;;;;;;;0.20;0.20;;;6.60;99.90;;;;;;10505516;28;20160;-59
2024/02/22 20:20:36;;;;;;;0.43;0.43;;;6.70;99.90;;;;;;10504596;28;22328;-57
2024/02/22 20:25:39;;;;;;;0.20;0.20;;;6.40;99.90;;;;;;10510280;28;20590;-58
2024/02/22 20:30:42;;;;;;;;;;;6.50;99.90;;;;;;10503568;28;20718;-66
2024/02/22 20:35:44;;;;;;;0.30;0.30;;;6.30;99.90;;;;;;10503683;28;19928;-59
2024/02/22 20:40:48;;;;;;;0.10;0.10;;;6.30;99.90;;;;;;10509111;28;20058;-56
2024/02/22 20:45:54;;;;;;;0.20;0.20;;;6.50;99.90;;;;;;10501883;28;20218;-60
2024/02/22 20:50:56;;;;;;;0.20;0.20;;;6.60;99.90;;;;;;10505870;28;20849;-59
2024/02/22 20:55:59;;;;;;;9.73;2.50;;;6.30;99.90;;;;;;10511580;28;20122;-60
2024/02/22 21:01:01;;;;;;;;;;;6.50;99.90;;;;;;10522173;28;20073;-61
2024/02/22 21:06:04;;;;;;;0.55;0.28;;;6.10;99.90;;;;;;10516113;28;20509;-60
2024/02/22 21:11:07;;;;;;;0.20;0.20;;;6.20;99.90;;;;;;10517215;28;20796;-57
2024/02/22 21:16:09;;;;;;;;;;;6.40;99.90;;;;;;10518250;28;20502;-59
2024/02/22 21:21:11;;;;;;;0.20;0.20;;;6.20;99.90;;;;;;10514652;28;19924;-60
2024/02/22 21:26:15;;;;;;;0.20;0.20;;;5.90;99.90;;;;;;10516372;28;20844;-59
2024/02/22 21:36:57;;;;;;;11.90;3.13;;;6.20;99.90;;;;;;10507621;28;20008;-58
2024/02/22 21:42:01;;;;;;;0.20;0.20;;;6.40;99.90;;;;;;10520008;28;20048;-58
2024/02/22 21:47:03;;;;;;;0.25;0.25;;;6.30;99.90;;;;;;10519469;28;20047;-60
2024/02/22 21:52:06;;;;;;;0.20;0.20;;;5.50;99.90;;;;;;10523560;28;20040;-60
2024/02/22 21:57:10;;;;;;;0.98;0.38;;;5.00;99.90;;;;;;10521813;28;20810;-60
2024/02/22 22:02:12;;;;;;;0.38;0.38;;;5.30;99.90;;;;;;10528681;28;20048;-60
2024/02/22 22:07:14;;;;;;;0.20;0.20;;;5.20;99.90;;;;;;10521902;28;20044;-59
2024/02/22 22:12:17;;;;;;;0.30;0.30;;;5.60;99.90;;;;;;10528333;28;20059;-59
2024/02/22 22:17:19;;;;;;;;;;;5.60;99.90;;;;;;10522083;28;20078;-57
2024/02/22 22:22:21;;;;;;;0.40;0.20;;;5.90;99.90;;;;;;10519529;28;19928;-59
2024/02/22 22:27:24;;;;;;;0.68;0.68;;;5.60;99.90;;;;;;10518537;28;20052;-59
2024/02/22 22:32:27;;;;;;;0.20;0.20;;;5.80;99.90;;;;;;10519505;28;20119;-61
2024/02/22 22:37:28;;;;;;;0.20;0.20;;;5.80;99.90;;;;;;10521095;28;20040;-60
2024/02/22 22:42:32;;;;;;;28.58;3.85;;;6.20;99.90;;;;;;10524489;27;20497;-57
2024/02/22 22:47:35;;;;;;;25.55;3.08;;;6.40;99.90;;;;;;10523889;28;20044;-59
2024/02/22 22:52:37;;;;;;;3.17;1.77;;;6.60;99.90;;;;;;10516745;28;20075;-60
2024/02/22 22:57:42;;;;;;;23.08;4.07;;;6.50;99.90;;;;;;10508607;28;20113;-59
2024/02/22 23:02:44;;;;;;;22.30;3.60;;;6.50;99.90;;;;;;10520855;28;20052;-59
2024/02/22 23:07:46;;;;;;;21.27;2.35;;;6.50;99.90;;;;;;10506826;28;20046;-57
2024/02/22 23:12:50;;;;;;;23.90;3.22;;;6.60;99.90;;;;;;10521031;28;20048;-59
2024/02/22 23:17:52;;;;;;;22.50;4.32;;;6.60;99.90;;;;;;10509303;28;20051;-59
2024/02/22 23:22:54;;;;;;;30.13;4.07;;;6.70;99.90;;;;;;10519999;28;20056;-59
2024/02/22 23:27:58;;;;;;;27.00;4.45;;;6.80;99.90;;;;;;10518100;28;20047;-57
2024/02/22 23:32:59;;;;;;;;;;;6.60;99.90;;;;;;10515216;28;20506;-57
2024/02/22 23:38:01;;;;;;;21.80;3.60;;;6.60;99.90;;;;;;10517635;28;20006;-60
2024/02/22 23:43:05;;;;;;;18.88;3.03;;;6.60;99.90;;;;;;10508485;28;20425;-59
2024/02/22 23:48:08;;;;;;;16.25;3.58;;;6.90;99.90;;;;;;10511931;28;20075;-57
2024/02/22 23:53:14;;;;;;;17.20;2.90;;;6.70;99.90;;;;;;10516337;28;20047;-59
2024/02/22 23:58:18;;;;;;;20.15;3.47;;;6.70;99.90;;;;;;10517233;28;20047;-59
